sensor_id;sensor_type;location;lat;lon;timestamp;P1;durP1;ratioP1;P2;durP2;ratioP2
12208;SDS011;6167;43.080;25.634;2023-03-21T00:01:41;13.17;;;9.47;;
12208;SDS011;6167;43.080;25.634;2023-03-21T00:04:07;12.97;;;9.03;;
12208;SDS011;6167;43.080;25.634;2023-03-21T00:06:34;14.20;;;9.13;;
12208;SDS011;6167;43.080;25.634;2023-03-21T00:09:02;12.70;;;9.57;;
12208;SDS011;6167;43.080;25.634;2023-03-21T00:11:28;15.07;;;9.70;;
12208;SDS011;6167;43.080;25.634;2023-03-21T00:13:55;14.30;;;9.50;;
12208;SDS011;6167;43.080;25.634;2023-03-21T00:16:26;11.40;;;9.47;;
12208;SDS011;6167;43.080;25.634;2023-03-21T00:18:56;12.43;;;10.30;;
12208;SDS011;6167;43.080;25.634;2023-03-21T00:21:23;12.07;;;9.90;;
12208;SDS011;6167;43.080;25.634;2023-03-21T00:23:52;13.47;;;9.80;;
12208;SDS011;6167;43.080;25.634;2023-03-21T00:26:20;15.40;;;10.60;;
12208;SDS011;6167;43.080;25.634;2023-03-21T00:28:47;15.73;;;10.43;;
12208;SDS011;6167;43.080;25.634;2023-03-21T00:31:14;12.53;;;10.30;;
12208;SDS011;6167;43.080;25.634;2023-03-21T00:33:41;13.83;;;10.70;;
12208;SDS011;6167;43.080;25.634;2023-03-21T00:36:11;11.80;;;9.60;;
12208;SDS011;6167;43.080;25.634;2023-03-21T00:38:38;14.83;;;10.60;;
12208;SDS011;6167;43.080;25.634;2023-03-21T00:41:05;13.30;;;10.90;;
12208;SDS011;6167;43.080;25.634;2023-03-21T00:43:32;16.17;;;10.20;;
12208;SDS011;6167;43.080;25.634;2023-03-21T00:45:58;12.87;;;10.30;;
12208;SDS011;6167;43.080;25.634;2023-03-21T00:48:25;14.00;;;10.57;;
12208;SDS011;6167;43.080;25.634;2023-03-21T00:50:52;14.03;;;10.53;;
12208;SDS011;6167;43.080;25.634;2023-03-21T00:53:21;11.50;;;9.83;;
12208;SDS011;6167;43.080;25.634;2023-03-21T00:55:48;13.50;;;10.07;;
12208;SDS011;6167;43.080;25.634;2023-03-21T00:58:15;15.83;;;10.17;;
12208;SDS011;6167;43.080;25.634;2023-03-21T01:00:42;17.93;;;10.93;;
12208;SDS011;6167;43.080;25.634;2023-03-21T01:03:11;14.10;;;10.57;;
12208;SDS011;6167;43.080;25.634;2023-03-21T01:05:38;16.83;;;10.60;;
12208;SDS011;6167;43.080;25.634;2023-03-21T01:08:23;17.60;;;11.33;;
12208;SDS011;6167;43.080;25.634;2023-03-21T01:10:52;12.20;;;10.63;;
12208;SDS011;6167;43.080;25.634;2023-03-21T01:13:19;14.90;;;10.63;;
12208;SDS011;6167;43.080;25.634;2023-03-21T01:15:47;13.07;;;10.13;;
12208;SDS011;6167;43.080;25.634;2023-03-21T01:18:15;12.43;;;10.13;;
12208;SDS011;6167;43.080;25.634;2023-03-21T01:20:42;16.33;;;10.93;;
12208;SDS011;6167;43.080;25.634;2023-03-21T01:23:10;14.83;;;9.97;;
12208;SDS011;6167;43.080;25.634;2023-03-21T01:25:39;14.97;;;10.73;;
12208;SDS011;6167;43.080;25.634;2023-03-21T01:28:06;14.13;;;11.10;;
12208;SDS011;6167;43.080;25.634;2023-03-21T01:30:33;13.83;;;10.40;;
12208;SDS011;6167;43.080;25.634;2023-03-21T01:33:00;15.53;;;10.77;;
12208;SDS011;6167;43.080;25.634;2023-03-21T01:35:27;13.70;;;11.03;;
12208;SDS011;6167;43.080;25.634;2023-03-21T01:37:54;12.93;;;10.77;;
12208;SDS011;6167;43.080;25.634;2023-03-21T01:40:21;14.43;;;11.30;;
12208;SDS011;6167;43.080;25.634;2023-03-21T01:42:50;14.60;;;11.83;;
12208;SDS011;6167;43.080;25.634;2023-03-21T01:48:17;16.67;;;11.50;;
12208;SDS011;6167;43.080;25.634;2023-03-21T01:50:44;14.07;;;11.03;;
12208;SDS011;6167;43.080;25.634;2023-03-21T01:53:11;15.20;;;11.70;;
12208;SDS011;6167;43.080;25.634;2023-03-21T01:55:39;14.47;;;10.83;;
12208;SDS011;6167;43.080;25.634;2023-03-21T01:58:08;14.90;;;11.20;;
12208;SDS011;6167;43.080;25.634;2023-03-21T02:00:36;15.13;;;11.47;;
12208;SDS011;6167;43.080;25.634;2023-03-21T02:03:06;15.60;;;11.30;;
12208;SDS011;6167;43.080;25.634;2023-03-21T02:05:36;14.43;;;11.23;;
12208;SDS011;6167;43.080;25.634;2023-03-21T02:08:05;14.40;;;10.13;;
12208;SDS011;6167;43.080;25.634;2023-03-21T02:10:31;15.70;;;11.03;;
12208;SDS011;6167;43.080;25.634;2023-03-21T02:12:58;16.30;;;11.77;;
12208;SDS011;6167;43.080;25.634;2023-03-21T02:15:33;12.30;;;10.27;;
12208;SDS011;6167;43.080;25.634;2023-03-21T02:20:52;13.73;;;11.03;;
12208;SDS011;6167;43.080;25.634;2023-03-21T02:23:28;16.43;;;11.40;;
12208;SDS011;6167;43.080;25.634;2023-03-21T02:28:43;14.50;;;11.13;;
12208;SDS011;6167;43.080;25.634;2023-03-21T02:31:27;14.63;;;10.50;;
12208;SDS011;6167;43.080;25.634;2023-03-21T02:34:18;16.30;;;11.17;;
12208;SDS011;6167;43.080;25.634;2023-03-21T02:36:54;12.97;;;10.33;;
12208;SDS011;6167;43.080;25.634;2023-03-21T02:39:25;15.37;;;10.87;;
12208;SDS011;6167;43.080;25.634;2023-03-21T02:41:57;15.63;;;11.03;;
12208;SDS011;6167;43.080;25.634;2023-03-21T02:44:27;14.90;;;10.43;;
12208;SDS011;6167;43.080;25.634;2023-03-21T02:46:56;16.20;;;10.63;;
12208;SDS011;6167;43.080;25.634;2023-03-21T02:49:25;15.63;;;10.80;;
12208;SDS011;6167;43.080;25.634;2023-03-21T02:51:57;16.97;;;10.83;;
12208;SDS011;6167;43.080;25.634;2023-03-21T02:54:24;13.53;;;10.20;;
12208;SDS011;6167;43.080;25.634;2023-03-21T02:56:52;12.53;;;10.53;;
12208;SDS011;6167;43.080;25.634;2023-03-21T02:59:21;18.57;;;10.80;;
12208;SDS011;6167;43.080;25.634;2023-03-21T03:01:49;14.10;;;10.50;;
12208;SDS011;6167;43.080;25.634;2023-03-21T03:04:17;17.03;;;10.70;;
12208;SDS011;6167;43.080;25.634;2023-03-21T03:06:46;14.37;;;10.90;;
12208;SDS011;6167;43.080;25.634;2023-03-21T03:09:20;14.90;;;11.10;;
12208;SDS011;6167;43.080;25.634;2023-03-21T03:11:50;14.43;;;10.67;;
12208;SDS011;6167;43.080;25.634;2023-03-21T03:17:15;14.50;;;10.73;;
12208;SDS011;6167;43.080;25.634;2023-03-21T03:19:49;16.80;;;11.30;;
12208;SDS011;6167;43.080;25.634;2023-03-21T03:22:20;11.87;;;10.63;;
12208;SDS011;6167;43.080;25.634;2023-03-21T03:24:51;16.50;;;11.70;;
12208;SDS011;6167;43.080;25.634;2023-03-21T03:27:23;15.60;;;10.73;;
12208;SDS011;6167;43.080;25.634;2023-03-21T03:29:51;15.10;;;11.40;;
12208;SDS011;6167;43.080;25.634;2023-03-21T03:32:20;13.90;;;11.77;;
12208;SDS011;6167;43.080;25.634;2023-03-21T03:34:50;16.70;;;11.47;;
12208;SDS011;6167;43.080;25.634;2023-03-21T03:37:21;16.23;;;12.13;;
12208;SDS011;6167;43.080;25.634;2023-03-21T03:39:52;13.67;;;11.43;;
12208;SDS011;6167;43.080;25.634;2023-03-21T03:42:22;14.43;;;11.70;;
12208;SDS011;6167;43.080;25.634;2023-03-21T03:44:50;15.20;;;11.63;;
12208;SDS011;6167;43.080;25.634;2023-03-21T03:47:18;15.23;;;12.03;;
12208;SDS011;6167;43.080;25.634;2023-03-21T03:49:47;15.60;;;12.57;;
12208;SDS011;6167;43.080;25.634;2023-03-21T03:52:16;18.07;;;12.50;;
12208;SDS011;6167;43.080;25.634;2023-03-21T03:54:44;17.03;;;11.53;;
12208;SDS011;6167;43.080;25.634;2023-03-21T03:57:13;15.07;;;12.17;;
12208;SDS011;6167;43.080;25.634;2023-03-21T03:59:40;16.07;;;11.80;;
12208;SDS011;6167;43.080;25.634;2023-03-21T04:02:08;15.20;;;11.77;;
12208;SDS011;6167;43.080;25.634;2023-03-21T04:04:35;16.27;;;11.47;;
12208;SDS011;6167;43.080;25.634;2023-03-21T04:07:02;14.43;;;11.27;;
12208;SDS011;6167;43.080;25.634;2023-03-21T04:09:30;12.83;;;10.97;;
12208;SDS011;6167;43.080;25.634;2023-03-21T04:11:57;12.73;;;10.80;;
12208;SDS011;6167;43.080;25.634;2023-03-21T04:14:25;12.73;;;10.57;;
12208;SDS011;6167;43.080;25.634;2023-03-21T04:16:52;12.47;;;10.73;;
12208;SDS011;6167;43.080;25.634;2023-03-21T04:19:18;12.47;;;10.00;;
12208;SDS011;6167;43.080;25.634;2023-03-21T04:21:46;16.17;;;11.23;;
12208;SDS011;6167;43.080;25.634;2023-03-21T04:24:13;16.57;;;10.40;;
12208;SDS011;6167;43.080;25.634;2023-03-21T04:26:40;14.10;;;10.53;;
12208;SDS011;6167;43.080;25.634;2023-03-21T04:29:06;11.83;;;10.23;;
12208;SDS011;6167;43.080;25.634;2023-03-21T04:31:35;12.53;;;10.57;;
12208;SDS011;6167;43.080;25.634;2023-03-21T04:34:02;15.73;;;10.37;;
12208;SDS011;6167;43.080;25.634;2023-03-21T04:36:30;20.40;;;11.73;;
12208;SDS011;6167;43.080;25.634;2023-03-21T04:39:03;14.73;;;11.10;;
12208;SDS011;6167;43.080;25.634;2023-03-21T04:41:36;16.27;;;11.10;;
12208;SDS011;6167;43.080;25.634;2023-03-21T04:44:03;13.67;;;10.57;;
12208;SDS011;6167;43.080;25.634;2023-03-21T04:46:29;18.53;;;11.50;;
12208;SDS011;6167;43.080;25.634;2023-03-21T04:48:58;16.13;;;11.03;;
12208;SDS011;6167;43.080;25.634;2023-03-21T04:51:25;18.90;;;11.30;;
12208;SDS011;6167;43.080;25.634;2023-03-21T04:53:51;17.73;;;11.03;;
12208;SDS011;6167;43.080;25.634;2023-03-21T04:56:21;14.17;;;10.80;;
12208;SDS011;6167;43.080;25.634;2023-03-21T04:58:50;12.87;;;10.50;;
12208;SDS011;6167;43.080;25.634;2023-03-21T05:01:17;17.57;;;11.07;;
12208;SDS011;6167;43.080;25.634;2023-03-21T05:03:44;14.70;;;10.67;;
12208;SDS011;6167;43.080;25.634;2023-03-21T05:06:15;14.97;;;10.93;;
12208;SDS011;6167;43.080;25.634;2023-03-21T05:08:42;15.07;;;10.73;;
12208;SDS011;6167;43.080;25.634;2023-03-21T05:11:08;16.30;;;11.10;;
12208;SDS011;6167;43.080;25.634;2023-03-21T05:13:35;15.40;;;10.40;;
12208;SDS011;6167;43.080;25.634;2023-03-21T05:16:02;12.90;;;10.13;;
12208;SDS011;6167;43.080;25.634;2023-03-21T05:18:29;13.00;;;9.50;;
12208;SDS011;6167;43.080;25.634;2023-03-21T05:20:59;12.53;;;10.07;;
12208;SDS011;6167;43.080;25.634;2023-03-21T05:23:30;14.80;;;10.97;;
12208;SDS011;6167;43.080;25.634;2023-03-21T05:26:02;11.77;;;8.87;;
12208;SDS011;6167;43.080;25.634;2023-03-21T05:28:29;15.07;;;10.40;;
12208;SDS011;6167;43.080;25.634;2023-03-21T05:31:01;12.70;;;10.33;;
12208;SDS011;6167;43.080;25.634;2023-03-21T05:33:27;12.23;;;9.83;;
12208;SDS011;6167;43.080;25.634;2023-03-21T05:35:56;16.30;;;11.13;;
12208;SDS011;6167;43.080;25.634;2023-03-21T05:38:23;16.00;;;11.13;;
12208;SDS011;6167;43.080;25.634;2023-03-21T05:40:52;14.33;;;11.23;;
12208;SDS011;6167;43.080;25.634;2023-03-21T05:43:19;16.33;;;11.23;;
12208;SDS011;6167;43.080;25.634;2023-03-21T05:45:46;14.03;;;10.17;;
12208;SDS011;6167;43.080;25.634;2023-03-21T05:48:13;12.17;;;10.73;;
12208;SDS011;6167;43.080;25.634;2023-03-21T05:50:40;13.90;;;10.13;;
12208;SDS011;6167;43.080;25.634;2023-03-21T05:53:08;14.77;;;11.97;;
12208;SDS011;6167;43.080;25.634;2023-03-21T05:55:35;18.23;;;11.73;;
12208;SDS011;6167;43.080;25.634;2023-03-21T05:58:03;17.07;;;12.10;;
12208;SDS011;6167;43.080;25.634;2023-03-21T06:00:30;16.10;;;11.90;;
12208;SDS011;6167;43.080;25.634;2023-03-21T06:02:57;19.10;;;11.93;;
12208;SDS011;6167;43.080;25.634;2023-03-21T06:05:24;14.50;;;12.23;;
12208;SDS011;6167;43.080;25.634;2023-03-21T06:07:53;21.00;;;14.83;;
12208;SDS011;6167;43.080;25.634;2023-03-21T06:10:19;22.00;;;13.80;;
12208;SDS011;6167;43.080;25.634;2023-03-21T06:12:46;20.33;;;13.13;;
12208;SDS011;6167;43.080;25.634;2023-03-21T06:15:14;16.50;;;12.60;;
12208;SDS011;6167;43.080;25.634;2023-03-21T06:17:41;17.47;;;11.90;;
12208;SDS011;6167;43.080;25.634;2023-03-21T06:20:08;17.57;;;12.77;;
12208;SDS011;6167;43.080;25.634;2023-03-21T06:22:35;14.07;;;12.00;;
12208;SDS011;6167;43.080;25.634;2023-03-21T06:25:02;15.23;;;10.77;;
12208;SDS011;6167;43.080;25.634;2023-03-21T06:27:29;19.90;;;12.17;;
12208;SDS011;6167;43.080;25.634;2023-03-21T06:29:56;19.10;;;11.70;;
12208;SDS011;6167;43.080;25.634;2023-03-21T06:32:25;16.10;;;11.27;;
12208;SDS011;6167;43.080;25.634;2023-03-21T06:34:53;17.77;;;12.60;;
12208;SDS011;6167;43.080;25.634;2023-03-21T06:37:19;19.95;;;12.77;;
12208;SDS011;6167;43.080;25.634;2023-03-21T06:39:46;17.13;;;12.33;;
12208;SDS011;6167;43.080;25.634;2023-03-21T06:42:13;15.88;;;11.55;;
12208;SDS011;6167;43.080;25.634;2023-03-21T06:44:40;15.27;;;10.73;;
12208;SDS011;6167;43.080;25.634;2023-03-21T06:47:07;16.83;;;11.80;;
12208;SDS011;6167;43.080;25.634;2023-03-21T06:49:35;13.48;;;11.63;;
12208;SDS011;6167;43.080;25.634;2023-03-21T06:52:01;16.05;;;10.23;;
12208;SDS011;6167;43.080;25.634;2023-03-21T06:54:28;14.45;;;10.27;;
12208;SDS011;6167;43.080;25.634;2023-03-21T06:56:55;14.30;;;12.20;;
12208;SDS011;6167;43.080;25.634;2023-03-21T06:59:22;18.13;;;12.60;;
12208;SDS011;6167;43.080;25.634;2023-03-21T07:01:49;16.73;;;11.82;;
12208;SDS011;6167;43.080;25.634;2023-03-21T07:04:15;18.60;;;11.82;;
12208;SDS011;6167;43.080;25.634;2023-03-21T07:06:43;15.07;;;11.00;;
12208;SDS011;6167;43.080;25.634;2023-03-21T07:09:10;16.73;;;10.77;;
12208;SDS011;6167;43.080;25.634;2023-03-21T07:11:37;16.92;;;11.35;;
12208;SDS011;6167;43.080;25.634;2023-03-21T07:14:04;17.52;;;11.18;;
12208;SDS011;6167;43.080;25.634;2023-03-21T07:16:31;13.98;;;10.48;;
12208;SDS011;6167;43.080;25.634;2023-03-21T07:18:57;18.02;;;10.77;;
12208;SDS011;6167;43.080;25.634;2023-03-21T07:21:24;15.07;;;10.55;;
12208;SDS011;6167;43.080;25.634;2023-03-21T07:23:53;15.85;;;11.40;;
12208;SDS011;6167;43.080;25.634;2023-03-21T07:26:22;17.30;;;11.13;;
12208;SDS011;6167;43.080;25.634;2023-03-21T07:28:49;16.67;;;11.30;;
12208;SDS011;6167;43.080;25.634;2023-03-21T07:31:16;17.65;;;11.15;;
12208;SDS011;6167;43.080;25.634;2023-03-21T07:33:43;15.80;;;10.77;;
12208;SDS011;6167;43.080;25.634;2023-03-21T07:36:11;16.10;;;11.10;;
12208;SDS011;6167;43.080;25.634;2023-03-21T07:38:40;15.32;;;10.82;;
12208;SDS011;6167;43.080;25.634;2023-03-21T07:41:08;19.90;;;11.50;;
12208;SDS011;6167;43.080;25.634;2023-03-21T07:43:36;17.05;;;10.52;;
12208;SDS011;6167;43.080;25.634;2023-03-21T07:46:03;16.90;;;11.23;;
12208;SDS011;6167;43.080;25.634;2023-03-21T07:48:29;49.65;;;13.82;;
12208;SDS011;6167;43.080;25.634;2023-03-21T07:50:56;14.77;;;11.57;;
12208;SDS011;6167;43.080;25.634;2023-03-21T07:53:23;17.40;;;10.68;;
12208;SDS011;6167;43.080;25.634;2023-03-21T07:55:50;14.55;;;11.00;;
12208;SDS011;6167;43.080;25.634;2023-03-21T07:58:18;15.70;;;10.85;;
12208;SDS011;6167;43.080;25.634;2023-03-21T08:00:44;15.75;;;11.73;;
12208;SDS011;6167;43.080;25.634;2023-03-21T08:03:11;13.13;;;10.73;;
12208;SDS011;6167;43.080;25.634;2023-03-21T08:05:38;13.73;;;10.32;;
12208;SDS011;6167;43.080;25.634;2023-03-21T08:08:05;19.75;;;10.50;;
12208;SDS011;6167;43.080;25.634;2023-03-21T08:10:32;14.73;;;10.30;;
12208;SDS011;6167;43.080;25.634;2023-03-21T08:13:00;13.20;;;9.85;;
12208;SDS011;6167;43.080;25.634;2023-03-21T08:15:28;23.20;;;11.40;;
12208;SDS011;6167;43.080;25.634;2023-03-21T08:17:56;26.67;;;17.20;;
12208;SDS011;6167;43.080;25.634;2023-03-21T08:20:23;23.02;;;10.82;;
12208;SDS011;6167;43.080;25.634;2023-03-21T08:22:50;30.85;;;12.60;;
12208;SDS011;6167;43.080;25.634;2023-03-21T08:25:17;23.88;;;14.25;;
12208;SDS011;6167;43.080;25.634;2023-03-21T08:27:44;16.48;;;10.95;;
12208;SDS011;6167;43.080;25.634;2023-03-21T08:30:13;25.45;;;10.38;;
12208;SDS011;6167;43.080;25.634;2023-03-21T08:32:42;36.58;;;10.35;;
12208;SDS011;6167;43.080;25.634;2023-03-21T08:35:09;9.30;;;7.57;;
12208;SDS011;6167;43.080;25.634;2023-03-21T08:37:36;11.02;;;8.15;;
12208;SDS011;6167;43.080;25.634;2023-03-21T08:40:03;19.45;;;8.55;;
12208;SDS011;6167;43.080;25.634;2023-03-21T08:42:33;11.95;;;7.45;;
12208;SDS011;6167;43.080;25.634;2023-03-21T08:45:00;9.65;;;7.40;;
12208;SDS011;6167;43.080;25.634;2023-03-21T08:47:26;8.65;;;7.07;;
12208;SDS011;6167;43.080;25.634;2023-03-21T08:49:54;9.25;;;7.13;;
12208;SDS011;6167;43.080;25.634;2023-03-21T08:52:21;8.35;;;7.20;;
12208;SDS011;6167;43.080;25.634;2023-03-21T08:54:47;8.10;;;6.60;;
12208;SDS011;6167;43.080;25.634;2023-03-21T08:57:14;7.35;;;6.47;;
12208;SDS011;6167;43.080;25.634;2023-03-21T08:59:41;7.40;;;6.55;;
12208;SDS011;6167;43.080;25.634;2023-03-21T09:02:08;8.35;;;7.20;;
12208;SDS011;6167;43.080;25.634;2023-03-21T09:04:35;9.57;;;6.78;;
12208;SDS011;6167;43.080;25.634;2023-03-21T09:07:03;11.60;;;7.95;;
12208;SDS011;6167;43.080;25.634;2023-03-21T09:09:30;7.90;;;6.93;;
12208;SDS011;6167;43.080;25.634;2023-03-21T09:11:57;9.93;;;7.70;;
12208;SDS011;6167;43.080;25.634;2023-03-21T09:14:23;6.97;;;6.30;;
12208;SDS011;6167;43.080;25.634;2023-03-21T09:16:50;13.30;;;8.60;;
12208;SDS011;6167;43.080;25.634;2023-03-21T09:19:16;9.68;;;7.70;;
12208;SDS011;6167;43.080;25.634;2023-03-21T09:21:43;9.52;;;7.38;;
12208;SDS011;6167;43.080;25.634;2023-03-21T09:24:12;9.35;;;6.50;;
12208;SDS011;6167;43.080;25.634;2023-03-21T09:26:39;10.55;;;6.90;;
12208;SDS011;6167;43.080;25.634;2023-03-21T09:29:08;9.77;;;7.72;;
12208;SDS011;6167;43.080;25.634;2023-03-21T09:31:34;9.15;;;7.85;;
12208;SDS011;6167;43.080;25.634;2023-03-21T09:34:01;13.18;;;8.32;;
12208;SDS011;6167;43.080;25.634;2023-03-21T09:36:28;11.45;;;9.00;;
12208;SDS011;6167;43.080;25.634;2023-03-21T09:38:56;11.73;;;7.82;;
12208;SDS011;6167;43.080;25.634;2023-03-21T09:44:10;8.82;;;7.45;;
12208;SDS011;6167;43.080;25.634;2023-03-21T09:46:42;9.07;;;8.15;;
12208;SDS011;6167;43.080;25.634;2023-03-21T09:49:14;10.15;;;7.95;;
12208;SDS011;6167;43.080;25.634;2023-03-21T09:51:42;9.05;;;7.80;;
12208;SDS011;6167;43.080;25.634;2023-03-21T09:54:17;9.32;;;8.32;;
12208;SDS011;6167;43.080;25.634;2023-03-21T09:56:45;11.27;;;8.65;;
12208;SDS011;6167;43.080;25.634;2023-03-21T09:59:18;10.18;;;8.70;;
12208;SDS011;6167;43.080;25.634;2023-03-21T10:01:46;9.32;;;8.30;;
12208;SDS011;6167;43.080;25.634;2023-03-21T10:04:14;11.38;;;9.82;;
12208;SDS011;6167;43.080;25.634;2023-03-21T10:06:43;10.80;;;8.20;;
12208;SDS011;6167;43.080;25.634;2023-03-21T10:09:12;10.95;;;8.45;;
12208;SDS011;6167;43.080;25.634;2023-03-21T10:11:40;11.63;;;8.45;;
12208;SDS011;6167;43.080;25.634;2023-03-21T10:14:11;10.60;;;9.00;;
12208;SDS011;6167;43.080;25.634;2023-03-21T10:16:41;11.45;;;8.35;;
12208;SDS011;6167;43.080;25.634;2023-03-21T10:19:10;11.70;;;8.68;;
12208;SDS011;6167;43.080;25.634;2023-03-21T10:21:38;8.65;;;7.70;;
12208;SDS011;6167;43.080;25.634;2023-03-21T10:24:09;11.18;;;8.20;;
12208;SDS011;6167;43.080;25.634;2023-03-21T10:26:36;11.75;;;8.48;;
12208;SDS011;6167;43.080;25.634;2023-03-21T10:29:03;9.32;;;8.25;;
12208;SDS011;6167;43.080;25.634;2023-03-21T10:31:30;12.60;;;8.48;;
12208;SDS011;6167;43.080;25.634;2023-03-21T10:34:03;11.98;;;8.65;;
12208;SDS011;6167;43.080;25.634;2023-03-21T10:36:33;11.85;;;8.10;;
12208;SDS011;6167;43.080;25.634;2023-03-21T10:39:00;9.75;;;8.15;;
12208;SDS011;6167;43.080;25.634;2023-03-21T10:41:28;10.55;;;7.97;;
12208;SDS011;6167;43.080;25.634;2023-03-21T10:44:05;10.20;;;8.90;;
12208;SDS011;6167;43.080;25.634;2023-03-21T10:46:31;8.90;;;8.00;;
12208;SDS011;6167;43.080;25.634;2023-03-21T10:48:59;9.82;;;8.48;;
12208;SDS011;6167;43.080;25.634;2023-03-21T10:51:27;14.05;;;10.75;;
12208;SDS011;6167;43.080;25.634;2023-03-21T10:53:57;9.02;;;7.90;;
12208;SDS011;6167;43.080;25.634;2023-03-21T10:56:24;13.07;;;9.30;;
12208;SDS011;6167;43.080;25.634;2023-03-21T10:58:52;9.10;;;8.20;;
12208;SDS011;6167;43.080;25.634;2023-03-21T11:01:23;10.00;;;8.20;;
12208;SDS011;6167;43.080;25.634;2023-03-21T11:03:55;9.60;;;8.55;;
12208;SDS011;6167;43.080;25.634;2023-03-21T11:06:25;11.52;;;7.88;;
12208;SDS011;6167;43.080;25.634;2023-03-21T11:08:54;9.38;;;7.50;;
12208;SDS011;6167;43.080;25.634;2023-03-21T11:11:23;9.98;;;8.13;;
12208;SDS011;6167;43.080;25.634;2023-03-21T11:13:56;10.65;;;7.78;;
12208;SDS011;6167;43.080;25.634;2023-03-21T11:16:23;8.20;;;6.82;;
12208;SDS011;6167;43.080;25.634;2023-03-21T11:18:51;10.15;;;7.22;;
12208;SDS011;6167;43.080;25.634;2023-03-21T11:21:22;11.85;;;7.90;;
12208;SDS011;6167;43.080;25.634;2023-03-21T11:23:52;10.77;;;9.02;;
12208;SDS011;6167;43.080;25.634;2023-03-21T11:26:24;10.05;;;7.88;;
12208;SDS011;6167;43.080;25.634;2023-03-21T11:28:52;8.27;;;7.45;;
12208;SDS011;6167;43.080;25.634;2023-03-21T11:31:19;8.15;;;7.35;;
12208;SDS011;6167;43.080;25.634;2023-03-21T11:33:51;8.65;;;7.70;;
12208;SDS011;6167;43.080;25.634;2023-03-21T11:39:02;9.57;;;8.23;;
12208;SDS011;6167;43.080;25.634;2023-03-21T11:41:31;10.45;;;8.85;;
12208;SDS011;6167;43.080;25.634;2023-03-21T11:44:00;7.90;;;7.13;;
12208;SDS011;6167;43.080;25.634;2023-03-21T11:46:28;7.90;;;7.10;;
12208;SDS011;6167;43.080;25.634;2023-03-21T11:48:55;10.90;;;7.40;;
12208;SDS011;6167;43.080;25.634;2023-03-21T11:51:24;8.57;;;7.07;;
12208;SDS011;6167;43.080;25.634;2023-03-21T11:53:54;8.65;;;7.45;;
12208;SDS011;6167;43.080;25.634;2023-03-21T11:56:24;13.23;;;10.38;;
12208;SDS011;6167;43.080;25.634;2023-03-21T11:59:02;11.00;;;9.40;;
12208;SDS011;6167;43.080;25.634;2023-03-21T12:01:35;7.60;;;6.45;;
12208;SDS011;6167;43.080;25.634;2023-03-21T12:04:06;9.18;;;7.10;;
12208;SDS011;6167;43.080;25.634;2023-03-21T12:06:40;9.88;;;8.88;;
12208;SDS011;6167;43.080;25.634;2023-03-21T12:09:14;7.88;;;7.07;;
12208;SDS011;6167;43.080;25.634;2023-03-21T12:11:44;8.38;;;7.18;;
12208;SDS011;6167;43.080;25.634;2023-03-21T12:14:22;11.48;;;6.85;;
12208;SDS011;6167;43.080;25.634;2023-03-21T12:16:59;8.55;;;7.65;;
12208;SDS011;6167;43.080;25.634;2023-03-21T12:22:18;18.45;;;13.10;;
12208;SDS011;6167;43.080;25.634;2023-03-21T12:24:49;10.15;;;8.45;;
12208;SDS011;6167;43.080;25.634;2023-03-21T12:27:21;9.70;;;7.80;;
12208;SDS011;6167;43.080;25.634;2023-03-21T12:29:59;14.40;;;9.90;;
12208;SDS011;6167;43.080;25.634;2023-03-21T12:32:35;12.05;;;9.98;;
12208;SDS011;6167;43.080;25.634;2023-03-21T12:35:09;10.02;;;8.45;;
12208;SDS011;6167;43.080;25.634;2023-03-21T12:37:40;10.80;;;8.25;;
12208;SDS011;6167;43.080;25.634;2023-03-21T12:40:15;10.20;;;7.90;;
12208;SDS011;6167;43.080;25.634;2023-03-21T12:45:37;11.75;;;8.73;;
12208;SDS011;6167;43.080;25.634;2023-03-21T12:48:10;10.77;;;8.88;;
12208;SDS011;6167;43.080;25.634;2023-03-21T12:50:39;11.52;;;7.80;;
12208;SDS011;6167;43.080;25.634;2023-03-21T12:53:11;8.38;;;7.35;;
12208;SDS011;6167;43.080;25.634;2023-03-21T12:55:39;9.32;;;7.20;;
12208;SDS011;6167;43.080;25.634;2023-03-21T12:58:10;7.97;;;7.00;;
12208;SDS011;6167;43.080;25.634;2023-03-21T13:00:40;11.38;;;7.18;;
12208;SDS011;6167;43.080;25.634;2023-03-21T13:03:10;9.52;;;7.20;;
12208;SDS011;6167;43.080;25.634;2023-03-21T13:05:39;13.38;;;9.20;;
12208;SDS011;6167;43.080;25.634;2023-03-21T13:08:10;9.82;;;8.55;;
12208;SDS011;6167;43.080;25.634;2023-03-21T13:10:39;12.50;;;7.82;;
12208;SDS011;6167;43.080;25.634;2023-03-21T13:13:10;9.80;;;7.45;;
12208;SDS011;6167;43.080;25.634;2023-03-21T13:18:24;9.32;;;7.20;;
12208;SDS011;6167;43.080;25.634;2023-03-21T13:20:54;20.17;;;8.40;;
12208;SDS011;6167;43.080;25.634;2023-03-21T13:23:22;10.05;;;7.60;;
12208;SDS011;6167;43.080;25.634;2023-03-21T13:25:50;11.25;;;7.65;;
12208;SDS011;6167;43.080;25.634;2023-03-21T13:28:19;11.00;;;7.47;;
12208;SDS011;6167;43.080;25.634;2023-03-21T13:30:47;10.88;;;7.50;;
12208;SDS011;6167;43.080;25.634;2023-03-21T13:33:14;12.23;;;7.40;;
12208;SDS011;6167;43.080;25.634;2023-03-21T13:35:52;9.02;;;7.55;;
12208;SDS011;6167;43.080;25.634;2023-03-21T13:38:20;8.90;;;7.13;;
12208;SDS011;6167;43.080;25.634;2023-03-21T13:40:49;8.45;;;7.10;;
12208;SDS011;6167;43.080;25.634;2023-03-21T13:43:30;8.75;;;7.47;;
12208;SDS011;6167;43.080;25.634;2023-03-21T13:46:10;10.38;;;7.93;;
12208;SDS011;6167;43.080;25.634;2023-03-21T13:48:41;10.52;;;7.05;;
12208;SDS011;6167;43.080;25.634;2023-03-21T13:51:10;7.85;;;7.00;;
12208;SDS011;6167;43.080;25.634;2023-03-21T13:53:37;11.48;;;8.70;;
12208;SDS011;6167;43.080;25.634;2023-03-21T13:58:53;16.00;;;11.27;;
12208;SDS011;6167;43.080;25.634;2023-03-21T14:01:23;13.02;;;9.38;;
12208;SDS011;6167;43.080;25.634;2023-03-21T14:03:55;10.68;;;7.70;;
12208;SDS011;6167;43.080;25.634;2023-03-21T14:06:25;14.18;;;8.27;;
12208;SDS011;6167;43.080;25.634;2023-03-21T14:08:58;8.93;;;7.85;;
12208;SDS011;6167;43.080;25.634;2023-03-21T14:11:25;21.83;;;8.98;;
12208;SDS011;6167;43.080;25.634;2023-03-21T14:13:53;38.15;;;10.90;;
12208;SDS011;6167;43.080;25.634;2023-03-21T14:16:23;19.95;;;11.82;;
12208;SDS011;6167;43.080;25.634;2023-03-21T14:18:54;11.55;;;8.35;;
12208;SDS011;6167;43.080;25.634;2023-03-21T14:21:21;11.57;;;8.32;;
12208;SDS011;6167;43.080;25.634;2023-03-21T14:23:55;19.65;;;12.15;;
12208;SDS011;6167;43.080;25.634;2023-03-21T14:26:23;18.08;;;12.30;;
12208;SDS011;6167;43.080;25.634;2023-03-21T14:28:50;12.43;;;8.27;;
12208;SDS011;6167;43.080;25.634;2023-03-21T14:31:17;14.25;;;7.75;;
12208;SDS011;6167;43.080;25.634;2023-03-21T14:33:45;13.02;;;8.18;;
12208;SDS011;6167;43.080;25.634;2023-03-21T14:36:15;19.65;;;10.90;;
12208;SDS011;6167;43.080;25.634;2023-03-21T14:38:42;11.70;;;7.70;;
12208;SDS011;6167;43.080;25.634;2023-03-21T14:41:20;13.18;;;8.13;;
12208;SDS011;6167;43.080;25.634;2023-03-21T14:44:02;9.65;;;8.00;;
12208;SDS011;6167;43.080;25.634;2023-03-21T14:46:29;10.60;;;7.18;;
12208;SDS011;6167;43.080;25.634;2023-03-21T14:49:08;10.18;;;7.03;;
12208;SDS011;6167;43.080;25.634;2023-03-21T14:51:35;15.20;;;7.68;;
12208;SDS011;6167;43.080;25.634;2023-03-21T14:54:03;10.48;;;7.35;;
12208;SDS011;6167;43.080;25.634;2023-03-21T14:56:32;9.88;;;7.00;;
12208;SDS011;6167;43.080;25.634;2023-03-21T14:59:01;8.68;;;7.22;;
12208;SDS011;6167;43.080;25.634;2023-03-21T15:01:28;12.30;;;7.90;;
12208;SDS011;6167;43.080;25.634;2023-03-21T15:03:56;11.23;;;7.07;;
12208;SDS011;6167;43.080;25.634;2023-03-21T15:06:24;108.05;;;13.38;;